Time;durP1;ratioP1;P1;durP2;ratioP2;P2;SDS_P1;SDS_P2;PMS_P1;PMS_P2;Temp;Humidity;BMP_temperature;BMP_pressure;BME280_temperature;BME280_humidity;BME280_pressure;Samples;Min_cycle;Max_cycle;Signal;HPM_P1;HPM_P2
2022/04/16 04:04:24;;;;;;;10.57;7.53;;;4.40;99.90;;;;;;5116653;23;20845;-78
2022/04/16 04:06:52;;;;;;;8.73;7.30;;;4.50;99.90;;;;;;4916834;29;20647;-74
2022/04/16 04:09:20;;;;;;;8.40;7.13;;;4.50;99.90;;;;;;4918350;29;20352;-74
2022/04/16 04:11:48;;;;;;;9.63;7.90;;;4.70;99.90;;;;;;4916776;29;20261;-75
2022/04/16 04:14:16;;;;;;;8.07;7.27;;;4.60;99.90;;;;;;4918631;29;20292;-76
2022/04/16 04:16:45;;;;;;;8.13;6.63;;;4.70;99.90;;;;;;4918860;29;20623;-76
2022/04/16 04:19:13;;;;;;;8.50;7.10;;;4.70;99.90;;;;;;4918763;29;20288;-77
2022/04/16 04:21:42;;;;;;;8.47;7.50;;;4.70;99.90;;;;;;4918349;29;20220;-76
2022/04/16 04:24:10;;;;;;;8.37;7.47;;;4.80;99.90;;;;;;4918900;29;20209;-76
2022/04/16 04:26:38;;;;;;;8.10;6.90;;;4.80;99.90;;;;;;4918724;29;20209;-77
2022/04/16 04:29:06;;;;;;;8.77;7.30;;;4.90;99.90;;;;;;4915561;29;20707;-76
2022/04/16 04:31:35;;;;;;;9.03;7.57;;;4.90;99.90;;;;;;4918450;29;20212;-77
2022/04/16 04:34:03;;;;;;;9.33;7.80;;;4.90;99.90;;;;;;4918778;29;20201;-75
2022/04/16 04:36:31;;;;;;;10.20;7.00;;;5.00;99.90;;;;;;4918215;29;20694;-76
2022/04/16 04:39:00;;;;;;;8.97;7.00;;;5.00;99.90;;;;;;4918605;29;20209;-76
2022/04/16 04:41:28;;;;;;;9.83;8.73;;;5.00;99.90;;;;;;4916114;29;20303;-77
2022/04/16 04:43:57;;;;;;;9.67;7.87;;;5.10;99.90;;;;;;4918805;29;20568;-76
2022/04/16 04:46:25;;;;;;;9.03;7.80;;;5.10;99.90;;;;;;4918151;29;20225;-78
2022/04/16 04:48:53;;;;;;;9.10;7.97;;;5.20;99.90;;;;;;4917969;29;20697;-75
2022/04/16 04:51:22;;;;;;;9.30;8.27;;;5.30;99.90;;;;;;4917694;29;20295;-77
2022/04/16 04:53:50;;;;;;;11.03;9.07;;;5.30;99.90;;;;;;4920019;29;20276;-73
2022/04/16 04:56:19;;;;;;;9.87;8.87;;;5.40;99.90;;;;;;4920902;29;20208;-75
2022/04/16 04:58:47;;;;;;;9.50;8.30;;;5.40;99.90;;;;;;4917912;29;20240;-74
2022/04/16 05:01:15;;;;;;;10.40;8.80;;;5.50;99.90;;;;;;4913321;29;20291;-76
2022/04/16 05:03:44;;;;;;;9.73;8.60;;;5.60;99.90;;;;;;4918192;29;20292;-75
2022/04/16 05:06:12;;;;;;;12.23;9.33;;;5.60;99.90;;;;;;4918136;29;20261;-77
2022/04/16 05:08:41;;;;;;;9.97;8.80;;;5.60;99.90;;;;;;4918213;29;20218;-77
2022/04/16 05:11:09;;;;;;;9.47;8.00;;;5.80;99.90;;;;;;4917839;29;20213;-77
2022/04/16 05:13:38;;;;;;;11.57;8.80;;;5.70;99.90;;;;;;4918451;29;20271;-77
2022/04/16 05:16:07;;;;;;;10.33;8.37;;;5.80;99.90;;;;;;4918441;29;20219;-78
2022/04/16 05:18:35;;;;;;;11.53;8.43;;;5.90;99.90;;;;;;4917823;29;20216;-77
2022/04/16 05:21:03;;;;;;;9.13;7.93;;;5.80;99.90;;;;;;4918136;29;20217;-78
2022/04/16 05:23:32;;;;;;;9.43;7.83;;;5.90;99.90;;;;;;4918117;29;20209;-78
2022/04/16 05:26:03;;;;;;;8.80;7.27;;;6.00;99.90;;;;;;4918025;29;20682;-78
2022/04/16 05:28:31;;;;;;;9.80;8.47;;;6.20;99.90;;;;;;4918638;29;20208;-78
2022/04/16 05:31:03;;;;;;;9.00;7.30;;;6.20;99.90;;;;;;4913188;29;20257;-78
2022/04/16 05:36:19;;;;;;;10.47;7.77;;;6.20;99.90;;;;;;4900415;29;20249;-73
2022/04/16 05:38:48;;;;;;;9.33;7.97;;;6.20;99.90;;;;;;4917699;29;20240;-77
2022/04/16 05:41:16;;;;;;;8.97;7.80;;;6.30;99.90;;;;;;4920106;29;20299;-77
2022/04/16 05:43:44;;;;;;;8.60;7.70;;;6.30;99.90;;;;;;4917800;29;20331;-75
2022/04/16 05:46:13;;;;;;;9.17;7.63;;;6.30;99.90;;;;;;4916850;29;20268;-77
2022/04/16 05:48:44;;;;;;;8.67;7.77;;;6.40;99.90;;;;;;4913603;29;20755;-77
2022/04/16 05:51:12;;;;;;;9.13;7.43;;;6.40;99.90;;;;;;4898042;29;20284;-73
2022/04/16 05:53:41;;;;;;;9.73;8.03;;;6.50;99.90;;;;;;4899540;29;20691;-74
2022/04/16 05:56:10;;;;;;;8.83;7.60;;;6.60;99.90;;;;;;4913532;29;20244;-74
2022/04/16 05:58:39;;;;;;;9.37;7.13;;;6.70;99.90;;;;;;4923595;29;20213;-74
2022/04/16 06:01:07;;;;;;;8.13;7.07;;;6.80;99.90;;;;;;4924673;29;20272;-73
2022/04/16 06:03:39;;;;;;;8.60;7.33;;;6.80;99.90;;;;;;4923500;29;20252;-75
2022/04/16 06:06:08;;;;;;;9.53;7.20;;;7.00;99.90;;;;;;4920358;29;20245;-76
2022/04/16 06:08:37;;;;;;;11.13;7.57;;;6.80;99.90;;;;;;4921494;29;20217;-74
2022/04/16 06:11:06;;;;;;;8.97;7.53;;;6.80;99.90;;;;;;4920030;29;20343;-75
2022/04/16 06:13:34;;;;;;;9.80;7.33;;;6.70;99.90;;;;;;4918871;29;20267;-73
2022/04/16 06:16:02;;;;;;;8.73;7.63;;;6.70;99.90;;;;;;4918977;29;20213;-75
2022/04/16 06:18:30;;;;;;;8.40;7.47;;;6.80;99.90;;;;;;4920240;29;20251;-74
2022/04/16 06:21:00;;;;;;;8.70;7.77;;;6.70;99.90;;;;;;4922557;29;20228;-75
2022/04/16 06:23:28;;;;;;;9.63;7.67;;;6.70;99.90;;;;;;4925356;29;20683;-74
2022/04/16 06:25:56;;;;;;;8.73;7.67;;;6.80;99.90;;;;;;4922767;29;20210;-74
2022/04/16 06:28:25;;;;;;;8.27;7.13;;;6.80;99.90;;;;;;4923274;29;20205;-74
2022/04/16 06:30:53;;;;;;;8.97;7.20;;;7.00;99.90;;;;;;4925175;29;20225;-73
2022/04/16 06:33:22;;;;;;;9.30;7.30;;;6.90;99.90;;;;;;4933099;29;20228;-74
2022/04/16 06:35:54;;;;;;;8.10;7.07;;;6.90;99.90;;;;;;4926998;29;20217;-76
2022/04/16 06:38:24;;;;;;;9.40;7.73;;;7.00;99.90;;;;;;4921593;29;20197;-77
2022/04/16 06:40:52;;;;;;;9.53;7.47;;;7.00;99.90;;;;;;4917368;29;20213;-77
2022/04/16 06:43:20;;;;;;;8.50;7.60;;;6.90;99.90;;;;;;4917909;29;20236;-75
2022/04/16 06:45:49;;;;;;;8.90;7.07;;;6.90;99.90;;;;;;4917339;29;20293;-78
2022/04/16 06:48:17;;;;;;;8.60;7.53;;;7.00;99.90;;;;;;4917478;29;20249;-73
2022/04/16 06:50:45;;;;;;;8.60;7.00;;;7.00;99.90;;;;;;4916593;29;20237;-75
2022/04/16 06:53:14;;;;;;;8.27;7.37;;;7.00;99.90;;;;;;4904519;29;20229;-73
2022/04/16 06:55:44;;;;;;;8.63;6.93;;;6.90;99.90;;;;;;4915014;29;20247;-76
2022/04/16 06:58:12;;;;;;;8.97;7.27;;;7.00;99.90;;;;;;4918430;29;20611;-77
2022/04/16 07:00:41;;;;;;;8.03;6.93;;;7.10;99.90;;;;;;4912918;29;20579;-74
2022/04/16 07:03:09;;;;;;;8.87;7.23;;;7.00;99.90;;;;;;4916424;29;20730;-76
2022/04/16 07:05:37;;;;;;;8.73;7.70;;;7.10;99.90;;;;;;4917800;29;20252;-74
2022/04/16 07:08:05;;;;;;;8.70;7.30;;;7.20;99.90;;;;;;4916353;29;20201;-76
2022/04/16 07:10:33;;;;;;;8.20;7.20;;;7.20;99.90;;;;;;4915566;29;20766;-75
2022/04/16 07:13:03;;;;;;;8.27;7.17;;;7.20;99.90;;;;;;4914406;29;20300;-76
2022/04/16 07:15:33;;;;;;;7.83;7.03;;;7.30;99.90;;;;;;4919571;29;20211;-76
2022/04/16 07:18:02;;;;;;;8.57;7.40;;;7.30;99.90;;;;;;4920398;29;20670;-75
2022/04/16 07:20:31;;;;;;;8.27;7.33;;;7.30;99.90;;;;;;4918907;29;20281;-73
2022/04/16 07:23:04;;;;;;;8.33;7.40;;;7.30;99.90;;;;;;4916482;29;20232;-75
2022/04/16 07:25:33;;;;;;;7.77;6.93;;;7.40;99.90;;;;;;4918971;29;20288;-74
2022/04/16 07:28:03;;;;;;;8.50;7.20;;;7.50;99.90;;;;;;4920019;29;20268;-75
2022/04/16 07:30:32;;;;;;;7.73;6.93;;;7.60;99.90;;;;;;4920340;29;20259;-76
2022/04/16 07:33:01;;;;;;;9.43;7.30;;;7.70;99.90;;;;;;4921836;29;20309;-78
2022/04/16 07:35:29;;;;;;;8.10;7.10;;;7.60;99.90;;;;;;4919210;29;20782;-76
2022/04/16 07:37:57;;;;;;;8.27;6.83;;;7.70;99.90;;;;;;4921508;29;20212;-74
2022/04/16 07:40:26;;;;;;;7.50;6.57;;;7.70;99.90;;;;;;4914428;29;20206;-76
2022/04/16 07:42:54;;;;;;;10.10;6.97;;;7.80;99.90;;;;;;4916753;29;20268;-74
2022/04/16 07:45:26;;;;;;;8.13;7.33;;;7.80;99.90;;;;;;4920238;29;20624;-74
2022/04/16 07:47:54;;;;;;;8.87;7.67;;;7.80;99.90;;;;;;4921867;29;20263;-73
2022/04/16 07:50:22;;;;;;;8.00;6.80;;;7.90;99.90;;;;;;4908628;29;20210;-76
2022/04/16 07:52:50;;;;;;;7.93;6.73;;;7.90;99.90;;;;;;4908550;29;20272;-74
2022/04/16 07:55:19;;;;;;;8.37;6.80;;;8.00;99.90;;;;;;4922814;29;20272;-75
2022/04/16 07:57:48;;;;;;;7.67;6.87;;;8.10;99.90;;;;;;4919830;29;20303;-76
2022/04/16 08:00:22;;;;;;;8.07;6.97;;;8.20;99.90;;;;;;4919255;29;20291;-75
2022/04/16 08:02:52;;;;;;;8.77;7.20;;;8.40;99.90;;;;;;4920474;29;20450;-76
2022/04/16 08:05:23;;;;;;;7.50;6.70;;;8.50;99.90;;;;;;4920290;29;20240;-76
2022/04/16 08:07:55;;;;;;;7.83;6.57;;;8.70;99.90;;;;;;4922385;29;20201;-76
2022/04/16 08:10:24;;;;;;;7.10;6.40;;;8.80;99.90;;;;;;4922053;29;20217;-77
2022/04/16 08:12:52;;;;;;;6.80;6.10;;;9.00;99.90;;;;;;4913024;29;20260;-76
2022/04/16 08:15:20;;;;;;;8.70;6.50;;;9.00;99.90;;;;;;4902528;29;20194;-75
2022/04/16 08:17:48;;;;;;;6.20;5.30;;;9.10;99.90;;;;;;4901448;29;20248;-77
2022/04/16 08:20:18;;;;;;;6.67;5.97;;;9.10;99.90;;;;;;4902199;29;20222;-74
2022/04/16 08:22:51;;;;;;;6.50;5.77;;;9.00;99.90;;;;;;4919792;29;20269;-74
2022/04/16 08:28:06;;;;;;;7.90;6.37;;;9.00;99.90;;;;;;4921370;29;20242;-73
2022/04/16 08:30:37;;;;;;;6.77;6.00;;;9.10;99.90;;;;;;4919382;29;20296;-78
2022/04/16 08:33:07;;;;;;;6.70;5.63;;;9.20;99.90;;;;;;4912579;29;20208;-77
2022/04/16 08:35:37;;;;;;;6.00;5.40;;;9.10;99.90;;;;;;4899149;29;20198;-79
2022/04/16 08:38:06;;;;;;;6.50;5.90;;;9.20;99.90;;;;;;4899286;29;20252;-76
2022/04/16 08:40:34;;;;;;;6.70;5.40;;;9.30;99.90;;;;;;4904110;29;20299;-77
2022/04/16 08:43:02;;;;;;;6.83;5.60;;;9.50;99.90;;;;;;4915940;29;20253;-76
2022/04/16 08:45:31;;;;;;;6.20;5.40;;;9.40;99.90;;;;;;4917262;29;20248;-77
2022/04/16 08:48:00;;;;;;;6.30;5.67;;;9.40;99.90;;;;;;4917466;29;20810;-76
2022/04/16 08:50:28;;;;;;;5.70;5.10;;;9.40;99.90;;;;;;4917635;29;20240;-76
2022/04/16 08:52:59;;;;;;;6.67;5.97;;;9.40;99.90;;;;;;4915554;29;20240;-75
2022/04/16 08:55:29;;;;;;;6.80;5.23;;;9.50;99.90;;;;;;4917053;29;20291;-78
2022/04/16 08:57:57;;;;;;;6.60;5.17;;;9.70;99.90;;;;;;4917647;29;20258;-76
2022/04/16 09:00:26;;;;;;;5.90;5.30;;;9.90;99.90;;;;;;4915974;29;20259;-77
2022/04/16 09:02:56;;;;;;;6.93;5.50;;;10.10;99.90;;;;;;4917533;29;20237;-76
2022/04/16 09:05:26;;;;;;;6.00;5.40;;;10.00;99.90;;;;;;4917464;29;20201;-77
2022/04/16 09:07:56;;;;;;;6.03;5.43;;;10.10;99.90;;;;;;4917793;29;20236;-73
2022/04/16 09:10:28;;;;;;;6.10;5.50;;;10.00;99.90;;;;;;4902082;29;20296;-74
2022/04/16 09:12:57;;;;;;;6.27;5.60;;;10.00;99.90;;;;;;4898104;29;20257;-73
2022/04/16 09:15:27;;;;;;;6.80;5.50;;;10.00;99.90;;;;;;4897889;29;20214;-78
2022/04/16 09:18:00;;;;;;;6.30;5.20;;;10.10;99.90;;;;;;4903513;29;20241;-73
2022/04/16 09:20:32;;;;;;;6.30;5.70;;;10.10;99.90;;;;;;4899766;29;20205;-77
2022/04/16 09:23:01;;;;;;;6.57;5.87;;;10.20;99.90;;;;;;4913747;29;20248;-74
2022/04/16 09:25:32;;;;;;;6.43;5.82;;;10.10;99.90;;;;;;4915206;29;20865;-77
2022/04/16 09:28:07;;;;;;;6.40;5.80;;;10.00;99.90;;;;;;4917895;29;20252;-75
2022/04/16 09:30:37;;;;;;;6.10;5.43;;;9.70;99.90;;;;;;4915380;29;20237;-76
2022/04/16 09:33:08;;;;;;;6.80;5.30;;;9.50;99.90;;;;;;4915723;29;20665;-74
2022/04/16 09:35:37;;;;;;;6.13;5.13;;;9.40;99.90;;;;;;4916074;29;20248;-76
2022/04/16 09:38:14;;;;;;;5.63;4.80;;;9.40;99.90;;;;;;4915424;29;20201;-76
2022/04/16 09:40:47;;;;;;;6.17;4.30;;;9.40;99.90;;;;;;4914890;29;20216;-78
2022/04/16 09:43:15;;;;;;;5.27;4.77;;;9.30;99.90;;;;;;4916853;29;20230;-75
2022/04/16 09:45:44;;;;;;;4.90;4.40;;;9.10;99.90;;;;;;4916367;29;20209;-76
2022/04/16 09:48:14;;;;;;;4.53;4.13;;;9.00;99.90;;;;;;4916692;29;20272;-77
2022/04/16 09:50:44;;;;;;;6.23;4.30;;;8.80;99.90;;;;;;4914440;29;20208;-76
2022/04/16 09:53:12;;;;;;;4.97;4.47;;;9.30;99.90;;;;;;4916572;29;20252;-75
2022/04/16 09:55:42;;;;;;;7.13;4.40;;;9.00;99.90;;;;;;4915611;29;20216;-77
2022/04/16 09:58:16;;;;;;;5.80;4.70;;;8.70;99.90;;;;;;4915746;29;20220;-78
2022/04/16 10:00:46;;;;;;;5.10;4.60;;;8.50;99.90;;;;;;4916188;29;20926;-78
2022/04/16 10:03:32;;;;;;;5.27;4.77;;;8.40;99.90;;;;;;4913622;29;20253;-76
2022/04/16 10:06:01;;;;;;;5.90;5.00;;;8.30;99.90;;;;;;4898283;29;20197;-76
2022/04/16 10:08:31;;;;;;;5.40;4.90;;;8.20;99.90;;;;;;4902557;29;20315;-78
2022/04/16 10:11:03;;;;;;;5.20;4.70;;;8.20;99.90;;;;;;4916140;29;20299;-78
2022/04/16 10:13:39;;;;;;;5.23;4.70;;;8.30;99.90;;;;;;4904708;29;20261;-78
2022/04/16 10:16:14;;;;;;;5.13;4.63;;;8.40;99.90;;;;;;4898434;29;20288;-79
2022/04/16 10:18:45;;;;;;;5.03;4.53;;;8.50;99.90;;;;;;4897813;29;20201;-78
2022/04/16 10:21:17;;;;;;;4.90;4.40;;;8.70;99.90;;;;;;4909177;29;20248;-78
2022/04/16 10:23:46;;;;;;;4.90;4.40;;;8.80;99.90;;;;;;4915850;29;20198;-75
2022/04/16 10:26:15;;;;;;;4.47;4.07;;;9.00;99.90;;;;;;4915358;29;20248;-74
2022/04/16 10:28:52;;;;;;;4.77;4.07;;;9.20;99.90;;;;;;4911693;29;20213;-74
2022/04/16 10:31:23;;;;;;;8.80;5.20;;;9.50;99.90;;;;;;4910620;29;20232;-77
2022/04/16 10:33:59;;;;;;;4.63;4.10;;;9.80;99.90;;;;;;4916772;29;20774;-76
2022/04/16 10:36:28;;;;;;;4.30;3.80;;;10.00;99.90;;;;;;4915891;29;20219;-75
2022/04/16 10:38:56;;;;;;;4.27;3.83;;;9.90;99.90;;;;;;4917159;29;20225;-76
2022/04/16 10:41:27;;;;;;;5.10;3.77;;;9.90;99.90;;;;;;4915327;29;20245;-76
2022/04/16 10:43:59;;;;;;;4.17;3.77;;;9.90;99.90;;;;;;4915137;29;20742;-75
2022/04/16 10:46:44;;;;;;;4.23;3.63;;;9.70;99.90;;;;;;4906573;29;20202;-77
2022/04/16 10:49:13;;;;;;;4.63;4.20;;;9.60;99.90;;;;;;4906705;29;20213;-75
2022/04/16 10:51:42;;;;;;;5.53;4.80;;;9.40;99.90;;;;;;4914758;29;20835;-74
2022/04/16 10:54:12;;;;;;;6.07;5.27;;;9.30;99.90;;;;;;4915558;29;20216;-74
2022/04/16 10:56:40;;;;;;;7.73;6.20;;;9.10;99.90;;;;;;4915583;29;20236;-76
2022/04/16 10:59:11;;;;;;;7.37;6.20;;;8.90;99.90;;;;;;4914910;29;20248;-78
2022/04/16 11:01:39;;;;;;;7.90;6.33;;;8.80;99.90;;;;;;4915458;29;20225;-75
2022/04/16 11:04:13;;;;;;;9.47;7.07;;;8.80;99.90;;;;;;4914933;29;20240;-78
2022/04/16 11:06:48;;;;;;;10.17;7.47;;;9.00;99.90;;;;;;4915607;29;20201;-77
2022/04/16 11:09:18;;;;;;;11.03;8.50;;;9.00;99.90;;;;;;4897338;29;20223;-77
2022/04/16 11:11:51;;;;;;;11.53;9.17;;;9.00;99.90;;;;;;4896952;29;20214;-77
2022/04/16 11:14:26;;;;;;;12.67;9.10;;;9.10;99.90;;;;;;4896779;29;20214;-78
2022/04/16 11:16:54;;;;;;;11.43;9.70;;;8.80;99.90;;;;;;4896497;29;20248;-78
2022/04/16 11:19:22;;;;;;;13.30;10.43;;;8.80;99.90;;;;;;4901734;29;20240;-76
2022/04/16 11:21:53;;;;;;;13.20;10.27;;;8.70;99.90;;;;;;4915354;29;20284;-77
2022/04/16 11:24:27;;;;;;;11.53;9.30;;;8.50;99.90;;;;;;4913098;29;20201;-75
2022/04/16 11:35:24;;;;;;;12.70;8.97;;;8.70;99.90;;;;;;4913005;29;20201;-77
2022/04/16 11:37:56;;;;;;;12.87;9.17;;;8.80;99.90;;;;;;4914719;29;20236;-75
2022/04/16 11:40:25;;;;;;;12.27;9.37;;;9.00;99.90;;;;;;4909714;29;20241;-76
2022/04/16 11:42:53;;;;;;;11.17;8.37;;;9.00;99.90;;;;;;4911212;29;20206;-78
2022/04/16 11:45:22;;;;;;;12.63;9.07;;;9.20;99.90;;;;;;4914385;29;20241;-77
2022/04/16 11:47:50;;;;;;;12.90;8.90;;;9.50;99.90;;;;;;4912555;29;20217;-73
2022/04/16 11:50:19;;;;;;;10.60;8.73;;;9.80;99.90;;;;;;4903156;29;20221;-73
2022/04/16 11:52:51;;;;;;;9.87;8.43;;;10.90;99.90;;;;;;4909322;29;20260;-73
2022/04/16 11:55:20;;;;;;;9.93;7.70;;;11.70;99.90;;;;;;4895826;29;20421;-75
2022/04/16 11:57:52;;;;;;;8.30;6.90;;;12.30;99.90;;;;;;4895443;29;20676;-75
2022/04/16 12:00:22;;;;;;;9.60;7.10;;;12.80;99.90;;;;;;4895362;29;20244;-74
2022/04/16 12:02:56;;;;;;;7.67;6.43;;;13.20;99.90;;;;;;4898214;29;20276;-77
2022/04/16 12:05:28;;;;;;;7.80;6.67;;;13.40;99.90;;;;;;4899537;29;20198;-75
2022/04/16 12:07:56;;;;;;;9.27;6.40;;;14.00;99.90;;;;;;4907826;29;20279;-77
2022/04/16 12:10:25;;;;;;;7.17;6.30;;;14.20;99.90;;;;;;4918533;29;20193;-77
2022/04/16 12:12:55;;;;;;;6.80;5.70;;;14.10;99.90;;;;;;4917629;29;20304;-78
2022/04/16 12:15:26;;;;;;;8.07;6.43;;;14.20;99.90;;;;;;4916891;29;20212;-75
2022/04/16 12:17:55;;;;;;;7.60;5.60;;;14.20;99.90;;;;;;4914596;29;20613;-78
2022/04/16 12:20:26;;;;;;;7.03;5.97;;;13.90;99.90;;;;;;4910252;29;20237;-78
2022/04/16 12:22:56;;;;;;;6.80;5.90;;;13.90;99.90;;;;;;4918772;29;20280;-76
2022/04/16 12:25:29;;;;;;;7.53;5.67;;;13.70;99.90;;;;;;4917965;29;20247;-76
2022/04/16 12:27:59;;;;;;;7.73;5.63;;;13.90;99.90;;;;;;4918541;29;20209;-75
2022/04/16 12:30:31;;;;;;;6.50;5.60;;;13.80;99.90;;;;;;4919526;29;20256;-73
2022/04/16 12:33:04;;;;;;;7.40;5.67;;;13.60;99.90;;;;;;4917856;29;20255;-74
2022/04/16 12:35:34;;;;;;;6.43;5.30;;;13.00;99.90;;;;;;4919698;29;20209;-74
2022/04/16 12:38:04;;;;;;;6.63;5.40;;;12.80;99.90;;;;;;4916760;29;20209;-78
2022/04/16 12:40:34;;;;;;;6.43;5.33;;;12.60;99.90;;;;;;4916204;29;20787;-76
2022/04/16 12:43:03;;;;;;;6.30;5.57;;;12.50;99.90;;;;;;4917335;29;20232;-74
2022/04/16 12:45:32;;;;;;;6.70;5.20;;;12.30;99.90;;;;;;4917904;29;20217;-77
2022/04/16 12:48:01;;;;;;;6.50;5.20;;;12.10;99.90;;;;;;4917989;29;20257;-77
2022/04/16 12:50:31;;;;;;;5.83;4.93;;;12.00;99.90;;;;;;4917814;29;20315;-74
2022/04/16 12:53:04;;;;;;;5.90;4.73;;;11.90;99.90;;;;;;4911406;29;20285;-77
2022/04/16 12:55:36;;;;;;;7.80;4.50;;;11.70;99.90;;;;;;4897681;29;20205;-78
2022/04/16 12:58:05;;;;;;;5.00;4.40;;;11.40;99.90;;;;;;4902630;29;20210;-78
2022/04/16 13:00:35;;;;;;;6.77;4.50;;;11.10;99.90;;;;;;4913100;29;20304;-76
2022/04/16 13:03:04;;;;;;;6.37;4.53;;;11.20;99.90;;;;;;4898163;29;20742;-75
2022/04/16 13:05:33;;;;;;;7.37;4.77;;;11.30;99.90;;;;;;4898649;29;20251;-76
2022/04/16 13:08:08;;;;;;;6.80;4.43;;;11.20;99.90;;;;;;4899454;29;20605;-74
2022/04/16 13:10:37;;;;;;;4.73;4.03;;;11.20;99.90;;;;;;4915777;29;20211;-76
2022/04/16 13:13:06;;;;;;;6.90;4.90;;;11.50;99.90;;;;;;4915935;29;20296;-76
2022/04/16 13:15:36;;;;;;;4.80;4.10;;;11.40;99.90;;;;;;4916958;29;20252;-75
2022/04/16 13:18:05;;;;;;;5.77;4.30;;;11.50;99.90;;;;;;4916032;29;20667;-76
2022/04/16 13:20:33;;;;;;;4.63;3.90;;;11.80;99.90;;;;;;4916649;29;20311;-76
2022/04/16 13:23:01;;;;;;;4.70;4.13;;;11.80;99.90;;;;;;4916856;29;20213;-77
2022/04/16 13:25:32;;;;;;;5.40;4.40;;;11.90;99.90;;;;;;4917175;29;20219;-75
2022/04/16 13:28:00;;;;;;;5.03;3.97;;;11.90;99.90;;;;;;4915220;29;20565;-77
2022/04/16 13:30:29;;;;;;;4.93;4.40;;;12.20;99.90;;;;;;4916012;29;20240;-77
2022/04/16 13:32:58;;;;;;;4.07;3.60;;;12.20;99.90;;;;;;4916725;29;20272;-76
2022/04/16 13:35:26;;;;;;;5.20;3.53;;;11.90;99.90;;;;;;4916419;29;20233;-75
2022/04/16 13:37:55;;;;;;;4.10;3.67;;;12.00;99.90;;;;;;4903925;29;20214;-77
2022/04/16 13:43:10;;;;;;;3.27;2.97;;;12.50;99.90;;;;;;4897305;29;20213;-76
2022/04/16 13:45:38;;;;;;;4.07;3.67;;;12.50;99.90;;;;;;4912939;29;20325;-76
2022/04/16 13:48:08;;;;;;;4.50;3.70;;;12.50;99.90;;;;;;4916616;29;20209;-76
2022/04/16 13:50:36;;;;;;;4.60;3.90;;;12.40;99.90;;;;;;4913462;29;20599;-74
2022/04/16 13:53:05;;;;;;;5.33;3.90;;;11.90;99.90;;;;;;4897571;29;20793;-74
2022/04/16 13:55:34;;;;;;;4.20;3.80;;;11.80;99.90;;;;;;4897486;29;20289;-77
2022/04/16 13:58:02;;;;;;;4.63;4.20;;;11.40;99.90;;;;;;4897388;29;20257;-78
2022/04/16 14:00:31;;;;;;;4.53;3.90;;;11.20;99.90;;;;;;4896825;29;20308;-75
2022/04/16 14:03:00;;;;;;;5.40;3.97;;;11.10;99.90;;;;;;4897195;29;20241;-77
2022/04/16 14:05:44;;;;;;;6.37;3.90;;;11.50;99.90;;;;;;4897037;29;20672;-76
2022/04/16 14:08:13;;;;;;;4.83;3.50;;;12.20;99.90;;;;;;4903735;29;20213;-73
2022/04/16 14:10:42;;;;;;;4.20;3.40;;;12.30;99.90;;;;;;4896634;29;20239;-76
2022/04/16 14:13:11;;;;;;;3.70;3.40;;;12.70;99.90;;;;;;4897253;29;20664;-73
2022/04/16 14:15:40;;;;;;;4.67;3.67;;;12.50;99.90;;;;;;4897291;29;20238;-75
2022/04/16 14:18:09;;;;;;;4.50;3.63;;;12.10;98.00;;;;;;4896931;29;20190;-75
2022/04/16 14:20:38;;;;;;;5.37;3.93;;;12.30;99.00;;;;;;4910583;29;20252;-77
2022/04/16 14:23:07;;;;;;;7.07;4.00;;;12.60;98.60;;;;;;4914377;29;20303;-74
2022/04/16 14:25:35;;;;;;;3.90;3.50;;;12.90;96.40;;;;;;4898990;29;20205;-75
2022/04/16 14:28:06;;;;;;;6.50;3.60;;;13.20;97.10;;;;;;4896506;29;20641;-77
2022/04/16 14:30:36;;;;;;;3.93;3.20;;;13.30;95.60;;;;;;4906978;29;20303;-74
2022/04/16 14:33:04;;;;;;;3.93;3.40;;;13.60;97.00;;;;;;4915302;29;20248;-75
2022/04/16 14:35:33;;;;;;;5.23;3.30;;;13.80;95.20;;;;;;4915936;29;20225;-74
2022/04/16 14:38:03;;;;;;;3.93;3.17;;;14.10;93.00;;;;;;4915572;29;20671;-76
2022/04/16 14:40:31;;;;;;;4.90;3.80;;;13.90;91.20;;;;;;4915369;29;20328;-75
2022/04/16 14:43:00;;;;;;;5.03;3.70;;;13.80;91.40;;;;;;4909709;29;20293;-74
2022/04/16 14:45:28;;;;;;;4.50;3.47;;;14.10;89.50;;;;;;4896905;29;20248;-76
2022/04/16 14:47:59;;;;;;;5.37;4.00;;;13.90;88.50;;;;;;4895854;29;20206;-76
2022/04/16 14:50:27;;;;;;;4.27;3.20;;;13.90;87.10;;;;;;4908808;29;20280;-75
2022/04/16 14:52:55;;;;;;;4.40;3.50;;;14.00;90.50;;;;;;4915599;29;20284;-76
2022/04/16 14:55:25;;;;;;;5.83;3.57;;;14.00;89.30;;;;;;4899989;29;20241;-76
2022/04/16 14:57:54;;;;;;;4.37;3.20;;;14.20;84.80;;;;;;4905599;29;20267;-74
2022/04/16 15:00:22;;;;;;;4.40;2.70;;;14.00;83.20;;;;;;4914995;29;20213;-75
2022/04/16 15:02:51;;;;;;;3.93;3.10;;;13.90;84.50;;;;;;4915448;29;20292;-73
2022/04/16 15:05:20;;;;;;;4.00;3.27;;;13.70;78.20;;;;;;4916410;29;20268;-75
2022/04/16 15:07:48;;;;;;;4.33;3.00;;;13.80;80.20;;;;;;4916033;29;20255;-77
2022/04/16 15:10:16;;;;;;;3.50;3.20;;;13.80;82.70;;;;;;4915418;29;20209;-77
2022/04/16 15:12:46;;;;;;;4.93;3.00;;;13.70;77.70;;;;;;4915306;29;20252;-77
2022/04/16 15:15:14;;;;;;;6.80;3.40;;;13.80;77.80;;;;;;4915783;29;20236;-77
2022/04/16 15:17:44;;;;;;;3.40;3.00;;;13.60;79.50;;;;;;4915430;29;20217;-75
2022/04/16 15:20:14;;;;;;;3.53;3.10;;;13.60;77.70;;;;;;4915548;29;20209;-75
2022/04/16 15:22:42;;;;;;;3.27;2.97;;;13.40;77.10;;;;;;4915529;29;20256;-74
2022/04/16 15:25:13;;;;;;;4.40;2.70;;;13.50;76.90;;;;;;4917430;29;20272;-76
2022/04/16 15:27:41;;;;;;;4.70;3.20;;;13.40;79.60;;;;;;4910511;29;20240;-77
2022/04/16 15:30:11;;;;;;;3.63;2.70;;;13.30;78.20;;;;;;4914953;29;20260;-76
2022/04/16 15:32:39;;;;;;;5.30;3.40;;;13.30;78.20;;;;;;4915744;29;20300;-78
2022/04/16 15:35:07;;;;;;;3.93;2.90;;;13.10;79.10;;;;;;4914978;29;20221;-77
2022/04/16 15:37:38;;;;;;;3.33;3.00;;;12.60;78.90;;;;;;4917849;29;20224;-77
2022/04/16 15:40:07;;;;;;;3.10;2.80;;;12.60;76.80;;;;;;4918421;29;20209;-76
2022/04/16 15:42:35;;;;;;;3.03;2.60;;;12.50;79.20;;;;;;4918962;29;20299;-78
2022/04/16 15:45:04;;;;;;;5.37;2.87;;;12.40;78.60;;;;;;4917416;29;20217;-77
2022/04/16 15:47:33;;;;;;;3.37;3.07;;;12.30;77.80;;;;;;4900129;29;20306;-77
2022/04/16 15:50:02;;;;;;;3.73;3.07;;;12.20;80.90;;;;;;4899504;29;20248;-76
2022/04/16 15:52:30;;;;;;;3.77;3.27;;;12.20;84.20;;;;;;4899808;29;20916;-77
2022/04/16 15:54:58;;;;;;;3.53;2.90;;;12.10;81.40;;;;;;4899567;29;20261;-75
2022/04/16 15:57:27;;;;;;;3.80;2.80;;;12.10;81.40;;;;;;4900962;29;20263;-78
2022/04/16 15:59:55;;;;;;;3.40;3.10;;;12.00;82.80;;;;;;4918019;29;20312;-76
2022/04/16 16:02:23;;;;;;;4.37;2.77;;;12.00;80.50;;;;;;4918102;29;20758;-75
2022/04/16 16:04:56;;;;;;;4.80;2.67;;;11.90;81.90;;;;;;4918205;29;20308;-76
2022/04/16 16:07:26;;;;;;;3.63;2.90;;;11.80;80.40;;;;;;4920582;29;20265;-76
2022/04/16 16:09:54;;;;;;;4.73;2.80;;;11.60;80.10;;;;;;4926274;29;20251;-75
2022/04/16 16:12:25;;;;;;;4.90;2.70;;;11.50;80.40;;;;;;4921513;29;20735;-74
2022/04/16 16:14:54;;;;;;;3.70;3.00;;;11.30;77.10;;;;;;4921660;29;20723;-77
2022/04/16 16:17:22;;;;;;;4.60;3.10;;;11.20;76.70;;;;;;4918545;29;20300;-76
2022/04/16 16:19:50;;;;;;;3.83;2.70;;;11.10;78.60;;;;;;4919141;29;20236;-76
2022/04/16 16:22:21;;;;;;;4.40;2.83;;;11.10;77.90;;;;;;4915534;29;20213;-76
2022/04/16 16:24:49;;;;;;;5.23;2.63;;;11.00;77.40;;;;;;4917993;29;20228;-77
2022/04/16 16:27:18;;;;;;;5.03;2.90;;;10.80;77.60;;;;;;4918007;29;20290;-77
2022/04/16 16:29:47;;;;;;;3.80;2.40;;;10.70;76.00;;;;;;4917742;29;20213;-78
2022/04/16 16:32:15;;;;;;;5.67;2.57;;;10.70;76.80;;;;;;4917949;29;20629;-76
2022/04/16 16:34:43;;;;;;;3.40;2.50;;;10.60;77.40;;;;;;4918113;29;20244;-76
2022/04/16 16:37:11;;;;;;;3.23;2.23;;;10.50;74.10;;;;;;4917894;29;20252;-78
2022/04/16 16:39:41;;;;;;;2.80;2.30;;;10.30;73.60;;;;;;4906870;29;20853;-75
2022/04/16 16:42:09;;;;;;;4.07;2.47;;;10.20;73.20;;;;;;4898956;29;20253;-79
2022/04/16 16:44:37;;;;;;;4.13;2.50;;;10.10;71.10;;;;;;4898867;29;20209;-78
2022/04/16 16:47:05;;;;;;;4.97;2.70;;;10.00;72.70;;;;;;4898584;29;20242;-76
2022/04/16 16:49:33;;;;;;;5.00;2.90;;;9.90;73.90;;;;;;4898610;29;20225;-75
2022/04/16 16:52:03;;;;;;;3.80;2.83;;;9.90;75.70;;;;;;4899394;29;20237;-77
2022/04/16 16:54:31;;;;;;;4.47;3.20;;;9.90;77.90;;;;;;4918346;29;20304;-77
2022/04/16 16:57:01;;;;;;;5.27;3.17;;;9.80;78.20;;;;;;4912585;29;20247;-77
2022/04/16 16:59:29;;;;;;;5.13;3.20;;;9.70;79.20;;;;;;4918735;29;20240;-78
2022/04/16 17:01:57;;;;;;;4.27;3.20;;;9.60;79.80;;;;;;4920174;29;20217;-78
2022/04/16 17:07:26;;;;;;;3.93;3.03;;;9.40;80.80;;;;;;4821427;29;20661;-79
2022/04/16 17:09:55;;;;;;;5.10;3.57;;;9.30;80.30;;;;;;4825787;29;20269;-77
2022/04/16 17:12:25;;;;;;;5.17;3.60;;;9.10;79.80;;;;;;4857187;29;20217;-78
2022/04/16 17:20:36;;;;;;;6.77;4.20;;;9.00;84.10;;;;;;4893899;29;20304;-75
2022/04/16 17:23:05;;;;;;;6.03;3.77;;;8.90;85.90;;;;;;4917306;29;20201;-75
2022/04/16 17:25:34;;;;;;;6.73;4.27;;;8.80;85.70;;;;;;4911777;29;20787;-77
2022/04/16 17:28:03;;;;;;;4.43;3.60;;;8.80;87.20;;;;;;4917069;29;20217;-76
2022/04/16 17:30:31;;;;;;;4.83;4.17;;;8.80;88.10;;;;;;4916360;29;20237;-78
2022/04/16 17:33:00;;;;;;;6.23;4.50;;;8.70;86.80;;;;;;4916892;29;20213;-77